Time;durP1;ratioP1;P1;durP2;ratioP2;P2;SDS_P1;SDS_P2;PMS_P1;PMS_P2;Temp;Humidity;BMP_temperature;BMP_pressure;BME280_temperature;BME280_humidity;BME280_pressure;Samples;Min_cycle;Max_cycle;Signal;HPM_P1;HPM_P2
2020/12/28 00:01:39;;;;;;;20.05;9.43;;;0.10;99.90;;;;;;5021056;28;20021;-78
2020/12/28 00:04:05;;;;;;;19.73;9.45;;;0.10;99.90;;;;;;5034350;28;20079;-79
2020/12/28 00:06:30;;;;;;;23.40;8.90;;;0.20;99.90;;;;;;5034437;28;20355;-79
2020/12/28 00:08:56;;;;;;;21.27;8.90;;;0.30;99.90;;;;;;5034246;28;20075;-78
2020/12/28 00:11:22;;;;;;;21.63;10.48;;;0.40;99.90;;;;;;5034429;28;20083;-79
2020/12/28 00:13:48;;;;;;;21.88;9.43;;;0.40;99.90;;;;;;5034334;28;20036;-79
2020/12/28 00:16:14;;;;;;;30.55;11.57;;;0.40;99.90;;;;;;5054685;28;20098;-79
2020/12/28 00:18:42;;;;;;;26.27;10.85;;;0.30;99.90;;;;;;5037832;28;20043;-79
2020/12/28 00:21:08;;;;;;;24.15;10.57;;;0.30;99.90;;;;;;5037923;28;20482;-79
2020/12/28 00:23:34;;;;;;;24.20;11.32;;;0.20;99.90;;;;;;5054393;28;20032;-79
2020/12/28 00:26:00;;;;;;;22.73;10.38;;;0.20;99.90;;;;;;5055795;28;20021;-79
2020/12/28 00:28:26;;;;;;;20.88;10.15;;;0.20;99.90;;;;;;5037752;28;20139;-79
2020/12/28 00:30:51;;;;;;;24.98;9.68;;;0.10;99.90;;;;;;5055374;28;20021;-79
2020/12/28 00:33:17;;;;;;;21.85;9.93;;;0.20;99.90;;;;;;5055560;28;20028;-79
2020/12/28 00:35:43;;;;;;;19.20;10.23;;;0.20;99.90;;;;;;5055568;28;20382;-79
2020/12/28 00:38:10;;;;;;;25.65;11.25;;;0.20;99.90;;;;;;5037553;28;20025;-79
2020/12/28 00:40:35;;;;;;;21.27;9.85;;;0.20;99.90;;;;;;5037478;28;20028;-79
2020/12/28 00:43:01;;;;;;;18.88;8.80;;;0.20;99.90;;;;;;5055399;28;20429;-79
2020/12/28 00:45:27;;;;;;;19.58;9.27;;;0.30;99.90;;;;;;5037484;28;20040;-78
2020/12/28 00:47:52;;;;;;;17.90;9.13;;;0.30;99.90;;;;;;5055259;28;20470;-79
2020/12/28 00:50:18;;;;;;;21.23;9.65;;;0.30;99.90;;;;;;5055277;28;20386;-79
2020/12/28 00:52:44;;;;;;;19.25;9.40;;;0.40;99.90;;;;;;5037002;28;20497;-79
2020/12/28 00:55:09;;;;;;;22.23;9.00;;;0.40;99.90;;;;;;5037359;28;20485;-79
2020/12/28 00:57:35;;;;;;;18.80;9.68;;;0.50;99.90;;;;;;5037173;28;20021;-79
2020/12/28 01:00:01;;;;;;;19.67;8.98;;;0.50;99.90;;;;;;5037202;28;20056;-79
2020/12/28 01:02:27;;;;;;;22.27;9.70;;;0.50;99.90;;;;;;5054792;28;20040;-79
2020/12/28 01:04:53;;;;;;;20.98;9.25;;;0.60;99.90;;;;;;5033462;28;20021;-79
2020/12/28 01:07:18;;;;;;;14.95;7.13;;;0.70;99.90;;;;;;5034938;28;20131;-79
2020/12/28 01:09:44;;;;;;;16.60;6.90;;;0.70;99.90;;;;;;5017305;28;20471;-78
2020/12/28 01:12:10;;;;;;;13.60;7.28;;;0.80;99.90;;;;;;5017068;28;20021;-79
2020/12/28 01:14:35;;;;;;;15.15;6.90;;;0.80;99.90;;;;;;5017062;28;20113;-79
2020/12/28 01:17:01;;;;;;;20.88;9.07;;;0.70;99.90;;;;;;5034792;28;20117;-79
2020/12/28 01:19:26;;;;;;;14.57;8.52;;;0.80;99.90;;;;;;5034779;28;20075;-79
2020/12/28 01:21:52;;;;;;;11.88;6.18;;;0.80;99.90;;;;;;5034733;28;20032;-79
2020/12/28 01:24:19;;;;;;;11.20;6.45;;;0.80;99.90;;;;;;5031524;28;20033;-79
2020/12/28 01:26:45;;;;;;;16.33;7.10;;;0.90;99.90;;;;;;5036512;28;20021;-79
2020/12/28 01:29:10;;;;;;;14.45;6.35;;;0.90;99.90;;;;;;5054619;28;20032;-79
2020/12/28 01:31:36;;;;;;;11.88;6.53;;;0.90;99.90;;;;;;5036581;28;20057;-79
2020/12/28 01:34:02;;;;;;;12.30;7.10;;;0.90;99.90;;;;;;5036477;28;20036;-79
2020/12/28 01:36:28;;;;;;;12.13;6.88;;;0.90;99.90;;;;;;5054438;28;20032;-79
2020/12/28 01:38:53;;;;;;;11.85;5.32;;;0.90;99.90;;;;;;5036235;28;20107;-80
2020/12/28 01:41:19;;;;;;;15.55;6.03;;;1.00;99.90;;;;;;5054417;28;20025;-79
2020/12/28 01:43:45;;;;;;;11.98;5.45;;;1.00;99.90;;;;;;5036373;28;20509;-78
2020/12/28 01:46:12;;;;;;;7.47;4.72;;;1.00;99.90;;;;;;5054192;28;20490;-78
2020/12/28 01:48:38;;;;;;;14.95;6.85;;;1.00;99.90;;;;;;5036158;28;20421;-78
2020/12/28 01:51:04;;;;;;;12.02;5.55;;;1.00;99.90;;;;;;5054183;28;20100;-77
2020/12/28 01:53:30;;;;;;;9.65;4.68;;;1.00;99.90;;;;;;5053771;28;20148;-78
2020/12/28 01:56:01;;;;;;;9.65;5.00;;;1.00;99.90;;;;;;5054074;28;20029;-79
2020/12/28 01:58:28;;;;;;;9.50;5.13;;;1.00;99.90;;;;;;5035997;28;20115;-78
2020/12/28 02:00:53;;;;;;;9.30;4.40;;;1.00;99.90;;;;;;5036023;28;20035;-78
2020/12/28 02:03:19;;;;;;;14.63;5.45;;;1.00;99.90;;;;;;5035893;28;20378;-79
2020/12/28 02:05:45;;;;;;;10.85;4.90;;;1.10;99.90;;;;;;5053833;28;20028;-79
2020/12/28 02:08:11;;;;;;;9.07;4.60;;;1.10;99.90;;;;;;5035811;28;20035;-79
2020/12/28 02:10:36;;;;;;;8.68;5.93;;;1.10;99.90;;;;;;5035793;28;20043;-79
2020/12/28 02:13:02;;;;;;;13.88;5.60;;;1.10;99.90;;;;;;5035753;28;20075;-78
2020/12/28 02:15:28;;;;;;;6.28;4.68;;;1.10;99.90;;;;;;5053640;28;20074;-78
2020/12/28 02:17:53;;;;;;;8.38;4.93;;;1.00;99.90;;;;;;5053617;28;20480;-78
2020/12/28 02:20:19;;;;;;;8.63;4.88;;;0.90;99.90;;;;;;5053565;28;20367;-78
2020/12/28 02:22:44;;;;;;;6.55;3.83;;;0.90;99.90;;;;;;5053303;28;20665;-78
2020/12/28 02:25:10;;;;;;;7.32;4.28;;;0.90;99.90;;;;;;5053570;28;20025;-78
2020/12/28 02:27:36;;;;;;;8.13;4.47;;;0.90;99.90;;;;;;5053308;28;20036;-78
2020/12/28 02:30:04;;;;;;;9.02;4.53;;;0.90;99.90;;;;;;5035566;28;20059;-78
2020/12/28 02:32:30;;;;;;;11.30;3.45;;;0.90;99.90;;;;;;5053315;28;20074;-79
2020/12/28 02:34:56;;;;;;;6.97;3.85;;;0.90;99.90;;;;;;5035457;28;20124;-78
2020/12/28 02:37:21;;;;;;;7.68;4.20;;;0.90;99.90;;;;;;5053027;28;20033;-78
2020/12/28 02:39:47;;;;;;;8.05;3.45;;;0.90;99.90;;;;;;5052963;28;20029;-79
2020/12/28 02:42:13;;;;;;;5.00;3.30;;;0.90;99.90;;;;;;5053126;28;20092;-79
2020/12/28 02:44:38;;;;;;;4.53;3.17;;;0.90;99.90;;;;;;5035238;28;20033;-78
2020/12/28 02:47:04;;;;;;;4.38;3.10;;;0.90;99.90;;;;;;5035287;28;20021;-79
2020/12/28 02:49:29;;;;;;;4.90;3.17;;;1.00;99.90;;;;;;5034920;28;20032;-79
2020/12/28 02:51:55;;;;;;;7.25;3.65;;;0.90;99.90;;;;;;5035168;28;20020;-79
2020/12/28 02:54:21;;;;;;;7.03;2.50;;;0.90;99.90;;;;;;5035209;28;20025;-79
2020/12/28 02:56:46;;;;;;;4.03;2.97;;;1.00;99.90;;;;;;5035011;28;20053;-78
2020/12/28 02:59:12;;;;;;;6.40;3.22;;;0.90;99.90;;;;;;5052866;28;20475;-79
2020/12/28 03:01:38;;;;;;;4.25;2.80;;;1.00;99.90;;;;;;5052893;28;20032;-79
2020/12/28 03:04:06;;;;;;;5.38;2.75;;;1.00;99.90;;;;;;5034969;28;20032;-78
2020/12/28 03:06:32;;;;;;;4.22;2.47;;;1.10;99.90;;;;;;5035007;28;20118;-78
2020/12/28 03:08:58;;;;;;;6.30;3.20;;;1.20;99.90;;;;;;5053284;28;20496;-78
2020/12/28 03:11:24;;;;;;;4.82;2.63;;;1.30;99.90;;;;;;5034953;28;20017;-78
2020/12/28 03:13:50;;;;;;;4.28;2.33;;;1.40;99.90;;;;;;5034819;28;20063;-79
2020/12/28 03:16:15;;;;;;;5.85;2.38;;;1.50;99.90;;;;;;5052844;28;20025;-79
2020/12/28 03:18:41;;;;;;;3.88;2.40;;;1.60;99.90;;;;;;5052465;28;20013;-78
2020/12/28 03:21:07;;;;;;;3.15;2.72;;;1.60;99.90;;;;;;5052669;28;20087;-79
2020/12/28 03:23:33;;;;;;;5.32;2.28;;;1.60;99.90;;;;;;5034745;28;20478;-78
2020/12/28 03:25:59;;;;;;;2.72;2.20;;;1.70;99.90;;;;;;5052619;28;20025;-78
2020/12/28 03:28:24;;;;;;;3.58;2.50;;;1.70;99.90;;;;;;5034737;28;20494;-78
2020/12/28 03:30:50;;;;;;;3.47;2.10;;;1.70;99.90;;;;;;5034815;28;20483;-79
2020/12/28 03:33:16;;;;;;;3.80;1.77;;;1.60;99.90;;;;;;5052617;28;20043;-79
2020/12/28 03:35:43;;;;;;;3.70;2.35;;;1.60;99.90;;;;;;5034749;28;20029;-79
2020/12/28 03:38:09;;;;;;;4.55;2.47;;;1.60;99.90;;;;;;5034625;28;20060;-79
2020/12/28 03:40:35;;;;;;;5.15;2.45;;;1.50;99.90;;;;;;5034217;28;20518;-79
2020/12/28 03:43:01;;;;;;;4.32;1.77;;;1.40;99.90;;;;;;5034621;28;20029;-79
2020/12/28 03:45:27;;;;;;;2.22;2.05;;;1.30;99.90;;;;;;5052419;28;20533;-79
2020/12/28 03:47:52;;;;;;;2.13;1.80;;;1.30;99.90;;;;;;5052144;28;20033;-79
2020/12/28 03:50:18;;;;;;;6.95;2.10;;;1.40;99.90;;;;;;5053595;28;20431;-79
2020/12/28 03:52:44;;;;;;;1.88;1.63;;;1.40;99.90;;;;;;5038409;28;20025;-79
2020/12/28 03:55:10;;;;;;;3.28;2.05;;;1.50;99.90;;;;;;5056340;28;20059;-79
2020/12/28 03:57:35;;;;;;;3.40;1.88;;;1.50;99.90;;;;;;5054065;28;20025;-79
2020/12/28 04:00:03;;;;;;;2.58;1.70;;;1.50;99.90;;;;;;5054711;28;20083;-79
2020/12/28 04:02:28;;;;;;;1.40;1.30;;;1.50;99.90;;;;;;5055776;28;20036;-79
2020/12/28 04:04:54;;;;;;;2.55;1.90;;;1.60;99.90;;;;;;5055631;28;20025;-79
2020/12/28 04:07:20;;;;;;;2.20;1.73;;;1.60;99.90;;;;;;5037741;28;20029;-79
2020/12/28 04:09:45;;;;;;;4.30;2.10;;;1.60;99.90;;;;;;5055443;28;20502;-79
2020/12/28 04:12:12;;;;;;;3.85;1.83;;;1.60;99.90;;;;;;5037897;28;20052;-79
2020/12/28 04:14:38;;;;;;;3.53;2.00;;;1.60;99.90;;;;;;5037373;28;20082;-79
2020/12/28 04:17:04;;;;;;;3.08;2.78;;;1.60;99.90;;;;;;5037702;28;20375;-79
2020/12/28 04:19:29;;;;;;;4.00;2.22;;;1.50;99.90;;;;;;5055438;28;20044;-79
2020/12/28 04:21:55;;;;;;;3.50;1.88;;;1.50;99.90;;;;;;5037298;28;20043;-79
2020/12/28 04:24:20;;;;;;;1.48;1.38;;;1.50;99.90;;;;;;5035483;28;20017;-79
2020/12/28 04:26:46;;;;;;;3.08;1.70;;;1.40;99.90;;;;;;5042236;28;20029;-79
2020/12/28 04:29:12;;;;;;;3.00;1.80;;;1.40;99.90;;;;;;5017112;28;20372;-78
2020/12/28 04:31:38;;;;;;;4.65;2.10;;;1.30;99.90;;;;;;5017226;28;20048;-79
2020/12/28 04:34:05;;;;;;;2.95;1.90;;;1.20;99.90;;;;;;5038859;28;20409;-79
2020/12/28 04:36:31;;;;;;;4.85;2.60;;;1.10;99.90;;;;;;5053936;28;20095;-79
2020/12/28 04:38:56;;;;;;;3.30;2.30;;;1.10;99.90;;;;;;5054463;28;20113;-79
2020/12/28 04:41:22;;;;;;;4.68;2.55;;;1.00;99.90;;;;;;5054572;28;20107;-79
2020/12/28 04:43:48;;;;;;;5.25;3.55;;;1.00;99.90;;;;;;5054794;28;20025;-79
2020/12/28 04:46:14;;;;;;;5.43;3.75;;;0.90;99.90;;;;;;5036208;28;20029;-79
2020/12/28 04:48:40;;;;;;;4.15;3.10;;;0.90;99.90;;;;;;5055143;28;20035;-79
2020/12/28 04:51:07;;;;;;;5.45;3.45;;;0.80;99.90;;;;;;5054286;28;20032;-79
2020/12/28 04:53:35;;;;;;;6.10;3.22;;;0.80;99.90;;;;;;5037288;28;20386;-79
2020/12/28 04:56:01;;;;;;;7.45;4.05;;;0.70;99.90;;;;;;5054003;28;20021;-79
2020/12/28 04:58:26;;;;;;;10.38;3.50;;;0.60;99.90;;;;;;5035159;28;20021;-79
2020/12/28 05:00:59;;;;;;;11.70;5.80;;;0.60;99.90;;;;;;5034684;28;20077;-79
2020/12/28 05:03:29;;;;;;;9.45;5.40;;;0.50;99.90;;;;;;5017346;28;20502;-79
2020/12/28 05:05:55;;;;;;;10.48;4.72;;;0.60;99.90;;;;;;5031516;28;20025;-79
2020/12/28 05:08:22;;;;;;;7.20;3.58;;;0.50;99.90;;;;;;5055226;28;20044;-78
2020/12/28 05:10:48;;;;;;;7.47;3.38;;;0.50;99.90;;;;;;5037042;28;20017;-79
2020/12/28 05:13:17;;;;;;;5.20;2.95;;;0.50;99.90;;;;;;5054878;28;20029;-79
2020/12/28 05:15:49;;;;;;;5.50;3.40;;;0.50;99.90;;;;;;5054830;28;20039;-79
2020/12/28 05:18:16;;;;;;;5.40;3.28;;;0.40;99.90;;;;;;5036874;28;20434;-79
2020/12/28 05:20:51;;;;;;;4.10;2.60;;;0.40;99.90;;;;;;5054373;28;20068;-79
2020/12/28 05:23:18;;;;;;;3.97;2.40;;;0.40;99.90;;;;;;5054679;28;20035;-79
2020/12/28 05:25:46;;;;;;;3.95;3.28;;;0.50;99.90;;;;;;5054317;28;20064;-79
2020/12/28 05:28:26;;;;;;;5.90;2.67;;;0.40;99.90;;;;;;5054399;28;20036;-79
2020/12/28 05:30:53;;;;;;;4.28;3.22;;;0.40;99.90;;;;;;5036761;28;20025;-78
2020/12/28 05:33:19;;;;;;;2.42;2.22;;;0.40;99.90;;;;;;5036527;28;20028;-79
2020/12/28 05:35:45;;;;;;;2.50;2.30;;;0.40;99.90;;;;;;5036524;28;20107;-79
2020/12/28 05:38:13;;;;;;;3.85;2.22;;;0.50;99.90;;;;;;5036454;28;20390;-79
2020/12/28 05:40:39;;;;;;;2.45;1.83;;;0.60;99.90;;;;;;5036326;28;20083;-79
2020/12/28 05:43:06;;;;;;;2.88;2.30;;;0.70;99.90;;;;;;5050895;28;20071;-79
2020/12/28 05:45:32;;;;;;;2.58;2.05;;;0.70;99.90;;;;;;5073556;28;20059;-79
2020/12/28 05:48:00;;;;;;;3.65;2.33;;;0.70;99.90;;;;;;5073973;28;20024;-79
2020/12/28 05:50:30;;;;;;;3.85;2.50;;;0.70;99.90;;;;;;5055333;28;20024;-79
2020/12/28 05:52:58;;;;;;;3.65;2.33;;;0.70;99.90;;;;;;5048649;28;20025;-79
2020/12/28 05:55:27;;;;;;;2.70;2.05;;;0.80;99.90;;;;;;5039234;28;20059;-79
2020/12/28 05:57:55;;;;;;;4.40;2.63;;;0.80;99.90;;;;;;5052056;28;20075;-79
2020/12/28 06:00:21;;;;;;;5.35;2.33;;;0.80;99.90;;;;;;5053918;28;20037;-79
2020/12/28 06:02:47;;;;;;;3.03;2.63;;;0.80;99.90;;;;;;5053936;28;20091;-78
2020/12/28 06:05:15;;;;;;;5.47;3.33;;;0.80;99.90;;;;;;5053920;28;20470;-78
2020/12/28 06:07:41;;;;;;;6.80;3.42;;;0.80;99.90;;;;;;5053220;28;20071;-79
2020/12/28 06:10:08;;;;;;;2.20;1.85;;;0.80;99.90;;;;;;5035898;28;20029;-79
2020/12/28 06:12:34;;;;;;;2.50;2.30;;;0.80;99.90;;;;;;5052923;28;20028;-78
2020/12/28 06:15:00;;;;;;;4.53;2.35;;;0.80;99.90;;;;;;5035808;28;20017;-79
2020/12/28 06:17:34;;;;;;;3.75;2.38;;;0.80;99.90;;;;;;5035725;28;20028;-79
2020/12/28 06:20:05;;;;;;;4.03;2.47;;;0.90;99.90;;;;;;5035683;28;20033;-79
2020/12/28 06:22:32;;;;;;;3.00;2.15;;;0.90;99.90;;;;;;5022880;28;20507;-79
2020/12/28 06:25:04;;;;;;;3.47;2.88;;;0.90;99.90;;;;;;5015830;28;20034;-79
2020/12/28 06:27:35;;;;;;;3.55;2.38;;;0.90;99.90;;;;;;5050835;28;20036;-79
2020/12/28 06:30:15;;;;;;;2.85;2.13;;;0.90;99.90;;;;;;5035652;28;20537;-79
2020/12/28 06:32:42;;;;;;;4.50;2.33;;;0.80;99.90;;;;;;5053331;28;20017;-79
2020/12/28 06:35:10;;;;;;;3.80;1.98;;;0.80;99.90;;;;;;5053326;28;20114;-80
2020/12/28 06:37:41;;;;;;;3.22;2.05;;;0.80;99.90;;;;;;5053125;28;20032;-79
2020/12/28 06:40:07;;;;;;;4.40;2.03;;;0.80;99.90;;;;;;5053104;28;20043;-79
2020/12/28 06:42:33;;;;;;;3.63;2.47;;;0.70;99.90;;;;;;5035169;28;20052;-79
2020/12/28 06:45:11;;;;;;;2.65;2.17;;;0.70;99.90;;;;;;5035227;28;20483;-78
2020/12/28 06:47:37;;;;;;;3.00;2.35;;;0.80;99.90;;;;;;5047028;28;20144;-80
2020/12/28 06:50:03;;;;;;;4.18;3.05;;;0.70;99.90;;;;;;5043420;28;20067;-79
2020/12/28 06:52:29;;;;;;;3.78;2.55;;;0.70;99.90;;;;;;5027572;28;20422;-78
2020/12/28 06:54:54;;;;;;;5.65;2.75;;;0.70;99.90;;;;;;5052580;28;20428;-78
2020/12/28 06:57:23;;;;;;;9.52;4.47;;;0.70;99.90;;;;;;5034857;28;20374;-78
2020/12/28 06:59:51;;;;;;;5.32;3.00;;;0.70;99.90;;;;;;5036341;28;20039;-78
2020/12/28 07:02:18;;;;;;;7.85;3.78;;;0.80;99.90;;;;;;5026726;28;20092;-78
2020/12/28 07:04:45;;;;;;;4.13;2.85;;;1.00;99.90;;;;;;5041185;28;20021;-78
2020/12/28 07:07:11;;;;;;;6.45;3.75;;;1.10;99.90;;;;;;5052447;28;20478;-78
2020/12/28 07:09:36;;;;;;;6.45;2.97;;;1.20;99.90;;;;;;5052670;28;20039;-77
2020/12/28 07:12:10;;;;;;;6.00;3.63;;;1.30;99.90;;;;;;5052664;28;20490;-78
2020/12/28 07:14:39;;;;;;;4.40;2.72;;;1.40;99.90;;;;;;5048101;28;20029;-78
2020/12/28 07:17:08;;;;;;;5.05;2.83;;;1.40;99.90;;;;;;5045259;28;20022;-78
2020/12/28 07:19:34;;;;;;;7.22;3.92;;;1.40;99.90;;;;;;5040295;28;20029;-78
2020/12/28 07:22:00;;;;;;;6.05;3.30;;;1.30;99.90;;;;;;5039449;28;20035;-78
2020/12/28 07:24:25;;;;;;;3.20;2.80;;;1.30;99.90;;;;;;5035670;28;20025;-79
2020/12/28 07:26:51;;;;;;;9.13;4.32;;;1.40;99.90;;;;;;5017010;28;20144;-78
2020/12/28 07:29:18;;;;;;;5.10;2.97;;;1.40;99.90;;;;;;5034873;28;20025;-77
2020/12/28 07:31:46;;;;;;;8.55;3.95;;;1.50;99.90;;;;;;5017141;28;20372;-79
2020/12/28 07:34:16;;;;;;;6.43;3.80;;;1.50;99.90;;;;;;5035622;28;20029;-79
2020/12/28 07:36:51;;;;;;;9.88;4.75;;;1.60;99.90;;;;;;5035842;28;20022;-79
2020/12/28 07:39:18;;;;;;;9.18;4.53;;;1.60;99.90;;;;;;5048021;28;20024;-79
2020/12/28 07:41:44;;;;;;;7.45;3.78;;;1.70;99.90;;;;;;5056362;28;20091;-79
2020/12/28 07:44:15;;;;;;;6.85;3.67;;;1.70;99.90;;;;;;5038177;28;20491;-79
2020/12/28 07:46:57;;;;;;;7.18;3.55;;;1.80;99.90;;;;;;5056480;28;20029;-79
2020/12/28 07:49:29;;;;;;;5.05;3.17;;;1.90;99.90;;;;;;5056539;28;20557;-79
2020/12/28 07:52:03;;;;;;;8.75;3.90;;;1.90;99.90;;;;;;5050865;28;20572;-78
2020/12/28 07:54:41;;;;;;;9.57;4.55;;;2.10;99.90;;;;;;5037968;28;20389;-78
2020/12/28 07:57:15;;;;;;;9.45;4.18;;;2.20;99.90;;;;;;5051278;28;20021;-79
2020/12/28 07:59:58;;;;;;;6.85;3.60;;;2.30;99.90;;;;;;5018479;28;20088;-79
2020/12/28 08:02:43;;;;;;;10.27;3.95;;;2.50;99.90;;;;;;5017672;28;20021;-79
2020/12/28 08:05:10;;;;;;;12.75;4.82;;;2.50;99.90;;;;;;5048719;28;20028;-78
2020/12/28 08:07:36;;;;;;;9.05;4.50;;;2.60;99.90;;;;;;5056780;28;20082;-79
2020/12/28 08:10:06;;;;;;;6.53;3.47;;;2.70;99.90;;;;;;5056176;28;20033;-79
2020/12/28 08:12:32;;;;;;;7.20;4.03;;;2.70;99.90;;;;;;5037860;28;20514;-79
2020/12/28 08:14:58;;;;;;;5.95;3.35;;;2.70;99.90;;;;;;5038130;28;20067;-79
2020/12/28 08:17:27;;;;;;;5.85;3.03;;;2.70;99.90;;;;;;5038129;28;20049;-78
2020/12/28 08:20:12;;;;;;;5.88;2.97;;;2.70;99.90;;;;;;5055832;28;20082;-79
2020/12/28 08:22:42;;;;;;;6.55;2.95;;;2.80;99.90;;;;;;5055824;28;20083;-79
2020/12/28 08:25:09;;;;;;;4.63;2.30;;;2.80;99.90;;;;;;5032646;28;20032;-79
2020/12/28 08:27:36;;;;;;;4.55;2.90;;;2.90;99.90;;;;;;5037930;28;20029;-79
2020/12/28 08:30:07;;;;;;;6.95;3.28;;;2.90;99.90;;;;;;5017920;28;20028;-79
2020/12/28 08:32:34;;;;;;;6.43;3.50;;;3.00;99.90;;;;;;5017896;28;20034;-79
2020/12/28 08:35:01;;;;;;;5.78;4.00;;;3.00;99.90;;;;;;5017854;28;20391;-79
2020/12/28 08:37:27;;;;;;;5.30;3.22;;;3.00;99.90;;;;;;5016952;28;20053;-79
2020/12/28 08:39:54;;;;;;;6.55;3.30;;;3.10;99.90;;;;;;5035524;28;20494;-79
2020/12/28 08:42:32;;;;;;;5.82;3.15;;;3.10;99.90;;;;;;5021241;28;20016;-78
2020/12/28 08:45:01;;;;;;;4.15;2.53;;;3.10;99.90;;;;;;5054797;28;20107;-79
2020/12/28 08:47:29;;;;;;;6.20;3.47;;;3.20;99.90;;;;;;5037340;28;20462;-79
2020/12/28 08:49:56;;;;;;;4.88;3.47;;;3.30;99.90;;;;;;5037286;28;20029;-80
2020/12/28 08:52:23;;;;;;;4.00;3.63;;;3.30;99.90;;;;;;5037192;28;20036;-80
2020/12/28 08:54:56;;;;;;;6.43;3.13;;;3.30;99.90;;;;;;5055178;28;20520;-80
2020/12/28 08:57:31;;;;;;;7.43;3.90;;;3.30;99.90;;;;;;5037281;28;20039;-80
2020/12/28 08:59:59;;;;;;;6.00;3.63;;;3.30;99.90;;;;;;5054555;28;20114;-80
2020/12/28 09:02:26;;;;;;;9.10;3.70;;;3.30;99.90;;;;;;5055007;28;20580;-79
2020/12/28 09:04:52;;;;;;;5.30;4.05;;;3.30;99.90;;;;;;5054801;28;20390;-80
2020/12/28 09:07:19;;;;;;;7.68;4.28;;;3.40;99.90;;;;;;5036973;28;20040;-79
2020/12/28 09:09:47;;;;;;;7.38;4.03;;;3.40;99.90;;;;;;5054891;28;20520;-80
2020/12/28 09:12:14;;;;;;;7.20;4.95;;;3.50;99.90;;;;;;5054859;28;20028;-80
2020/12/28 09:14:41;;;;;;;10.50;4.35;;;3.50;99.90;;;;;;5054309;28;20029;-79
2020/12/28 09:17:07;;;;;;;13.48;5.07;;;3.70;99.90;;;;;;5054804;28;20052;-80
2020/12/28 09:19:33;;;;;;;10.43;5.68;;;3.80;99.90;;;;;;5036824;28;20060;-79
2020/12/28 09:21:59;;;;;;;6.95;3.90;;;4.00;99.90;;;;;;5036764;28;20079;-76
2020/12/28 09:24:26;;;;;;;5.68;3.50;;;4.20;99.90;;;;;;5054731;28;20017;-79
2020/12/28 09:26:54;;;;;;;4.97;3.47;;;4.30;99.90;;;;;;5036694;28;20063;-78
2020/12/28 09:29:21;;;;;;;6.75;3.78;;;4.50;99.90;;;;;;5052820;28;20104;-79
2020/12/28 09:31:47;;;;;;;8.50;4.10;;;4.60;99.90;;;;;;5018168;28;20026;-78
2020/12/28 09:34:12;;;;;;;5.55;3.70;;;4.80;99.90;;;;;;5016971;28;20042;-78
2020/12/28 09:36:38;;;;;;;5.35;3.72;;;4.90;98.70;;;;;;5016644;28;20399;-77
2020/12/28 09:39:04;;;;;;;6.95;3.72;;;4.90;98.50;;;;;;5034379;28;20057;-77
2020/12/28 09:41:30;;;;;;;7.75;4.32;;;5.10;97.90;;;;;;5016718;28;20029;-78
2020/12/28 09:43:56;;;;;;;6.57;3.58;;;5.10;97.40;;;;;;5033833;28;20021;-78
2020/12/28 09:46:23;;;;;;;4.30;3.00;;;5.20;94.70;;;;;;5034415;28;20491;-78
2020/12/28 09:48:50;;;;;;;4.47;2.80;;;5.30;94.10;;;;;;5034300;28;20028;-80
2020/12/28 09:51:16;;;;;;;7.00;4.03;;;5.30;93.60;;;;;;5034291;28;20018;-79
2020/12/28 09:53:42;;;;;;;6.68;3.38;;;5.40;94.00;;;;;;5034143;28;20022;-76
2020/12/28 09:56:11;;;;;;;4.30;2.58;;;5.40;94.50;;;;;;5016468;28;20025;-78
2020/12/28 09:58:37;;;;;;;6.63;3.55;;;5.40;93.10;;;;;;5015790;28;20021;-77
2020/12/28 10:01:08;;;;;;;6.63;3.60;;;5.50;91.70;;;;;;5042334;28;20079;-77
2020/12/28 10:03:36;;;;;;;7.07;3.33;;;5.60;92.00;;;;;;5053963;28;20086;-76
2020/12/28 10:06:30;;;;;;;6.35;3.78;;;5.60;91.30;;;;;;5035906;28;20029;-79
2020/12/28 10:08:48;;;;;;;5.82;2.58;;;5.60;90.60;;;;;;5053303;28;20090;-78
2020/12/28 10:11:13;;;;;;;3.75;3.10;;;5.50;92.60;;;;;;5053789;28;20482;-78
2020/12/28 10:13:39;;;;;;;4.00;2.95;;;5.50;92.60;;;;;;5053104;28;20412;-78
2020/12/28 10:16:04;;;;;;;6.05;3.30;;;5.50;94.20;;;;;;5035704;28;20070;-77
2020/12/28 10:18:30;;;;;;;4.93;3.08;;;5.40;93.70;;;;;;5035645;28;20119;-78
2020/12/28 10:20:56;;;;;;;3.85;3.10;;;5.40;93.40;;;;;;5053076;28;20033;-78
2020/12/28 10:23:22;;;;;;;4.53;2.90;;;5.30;93.90;;;;;;5052458;28;20025;-79
2020/12/28 10:25:47;;;;;;;4.93;3.03;;;5.30;95.20;;;;;;5053324;28;20048;-77
2020/12/28 10:28:13;;;;;;;6.65;3.72;;;5.20;95.30;;;;;;5034442;28;20028;-79
2020/12/28 10:30:39;;;;;;;4.65;3.08;;;5.20;95.70;;;;;;5031525;28;20028;-78
2020/12/28 10:33:04;;;;;;;4.75;3.45;;;5.20;96.70;;;;;;5015900;28;20017;-78
2020/12/28 10:35:30;;;;;;;3.55;2.33;;;5.20;96.20;;;;;;5015656;28;20029;-78
2020/12/28 10:37:56;;;;;;;8.88;4.55;;;5.10;97.10;;;;;;5014600;28;20025;-78
2020/12/28 10:40:22;;;;;;;9.25;4.70;;;5.10;98.00;;;;;;5015010;28;20427;-78
2020/12/28 10:42:47;;;;;;;6.38;4.55;;;5.10;98.50;;;;;;5020850;28;20021;-78
2020/12/28 10:45:13;;;;;;;8.15;3.75;;;5.00;98.40;;;;;;5025158;28;20025;-79
2020/12/28 10:47:39;;;;;;;5.05;3.88;;;5.00;98.20;;;;;;5040495;28;20479;-78
2020/12/28 10:50:05;;;;;;;6.80;3.63;;;5.00;99.30;;;;;;5041963;28;20079;-79
2020/12/28 10:52:31;;;;;;;6.35;3.92;;;4.90;99.90;;;;;;5042118;28;20028;-78
2020/12/28 10:54:56;;;;;;;5.00;3.65;;;4.90;99.90;;;;;;5040531;28;20025;-79
2020/12/28 10:57:22;;;;;;;7.47;3.92;;;4.90;99.90;;;;;;5024423;28;20025;-79
2020/12/28 10:59:47;;;;;;;11.88;7.80;;;4.90;99.90;;;;;;5042443;28;20030;-79
2020/12/28 11:02:16;;;;;;;8.13;4.88;;;4.80;99.90;;;;;;5024396;28;20399;-78
2020/12/28 11:04:43;;;;;;;6.97;4.20;;;4.80;99.90;;;;;;5022165;28;20024;-79
2020/12/28 11:07:09;;;;;;;8.95;4.63;;;4.80;99.50;;;;;;5032872;28;20014;-77
2020/12/28 11:09:35;;;;;;;6.82;4.05;;;4.80;99.70;;;;;;5032936;28;20041;-78
2020/12/28 11:12:00;;;;;;;7.43;4.20;;;4.90;99.80;;;;;;5015185;28;20025;-78
2020/12/28 11:14:26;;;;;;;13.60;7.65;;;4.90;99.90;;;;;;5015201;28;20022;-77
2020/12/28 11:16:52;;;;;;;4.95;3.97;;;4.90;99.70;;;;;;5015055;28;20037;-78
2020/12/28 11:19:17;;;;;;;9.25;5.00;;;4.90;98.80;;;;;;5032668;28;20022;-78
2020/12/28 11:21:44;;;;;;;6.47;4.10;;;4.90;98.90;;;;;;5042788;28;20013;-79
2020/12/28 11:24:09;;;;;;;9.63;5.50;;;4.90;98.60;;;;;;5034771;28;20506;-78
2020/12/28 11:26:35;;;;;;;11.25;6.10;;;4.90;99.10;;;;;;5034821;28;20013;-78
2020/12/28 11:29:04;;;;;;;7.60;4.10;;;4.90;99.90;;;;;;5048726;28;20489;-78
2020/12/28 11:31:30;;;;;;;9.00;5.03;;;4.90;99.50;;;;;;5033330;28;20025;-78
2020/12/28 11:33:56;;;;;;;13.38;7.50;;;4.90;99.90;;;;;;5052598;28;20040;-78
2020/12/28 11:36:22;;;;;;;35.42;15.70;;;4.90;99.90;;;;;;5052717;28;20367;-78
2020/12/28 11:38:48;;;;;;;39.30;18.02;;;4.90;99.90;;;;;;5034631;28;20031;-78
2020/12/28 11:41:14;;;;;;;72.80;33.33;;;4.80;99.90;;;;;;5034622;28;20514;-78
2020/12/28 11:43:40;;;;;;;73.70;31.15;;;4.80;99.90;;;;;;5052378;28;20116;-78
2020/12/28 11:46:09;;;;;;;208.85;80.25;;;4.80;99.90;;;;;;5033783;28;20112;-78
2020/12/28 11:48:36;;;;;;;132.68;51.63;;;4.80;99.90;;;;;;5052407;28;20017;-78
2020/12/28 11:51:06;;;;;;;140.15;50.53;;;4.80;99.90;;;;;;5034496;28;20045;-78
2020/12/28 11:53:33;;;;;;;83.13;28.30;;;4.80;99.90;;;;;;5052395;28;20087;-79
2020/12/28 11:56:11;;;;;;;105.85;37.17;;;4.80;99.90;;;;;;5050571;28;20036;-78
2020/12/28 11:58:39;;;;;;;65.03;24.45;;;4.80;99.90;;;;;;5051454;28;20032;-78
2020/12/28 12:01:14;;;;;;;70.82;25.95;;;4.80;99.80;;;;;;5049720;28;20037;-78
2020/12/28 12:03:40;;;;;;;158.65;56.00;;;4.80;98.60;;;;;;5034322;28;20028;-78
2020/12/28 12:06:15;;;;;;;87.70;32.53;;;4.80;98.80;;;;;;5033865;28;20075;-79
2020/12/28 12:09:11;;;;;;;18.33;10.50;;;4.80;97.90;;;;;;5040100;28;20116;-78
2020/12/28 12:11:50;;;;;;;9.18;5.75;;;4.90;94.10;;;;;;5025529;28;20100;-78
2020/12/28 12:14:19;;;;;;;17.85;9.13;;;5.00;87.30;;;;;;5026506;28;20104;-79
2020/12/28 12:16:45;;;;;;;15.77;8.57;;;5.10;84.60;;;;;;5044760;28;20016;-78
2020/12/28 12:19:10;;;;;;;18.63;8.20;;;5.10;83.10;;;;;;5027233;28;20116;-78
2020/12/28 12:21:36;;;;;;;17.70;8.65;;;5.20;81.70;;;;;;5026441;28;20060;-79
2020/12/28 12:24:02;;;;;;;31.77;14.50;;;5.20;79.90;;;;;;5045110;28;20023;-78
2020/12/28 12:26:28;;;;;;;17.90;8.95;;;5.30;79.90;;;;;;5043986;28;20458;-78
2020/12/28 12:28:54;;;;;;;11.98;6.47;;;5.30;79.90;;;;;;5046484;28;20433;-78
2020/12/28 12:31:20;;;;;;;34.00;14.07;;;5.30;80.10;;;;;;5055329;28;20025;-79
2020/12/28 12:33:47;;;;;;;19.92;8.90;;;5.30;80.10;;;;;;5037695;28;20509;-79
2020/12/28 12:36:14;;;;;;;14.43;7.88;;;5.30;80.30;;;;;;5055068;28;20049;-79
2020/12/28 12:38:40;;;;;;;12.68;7.35;;;5.30;78.90;;;;;;5037095;28;20033;-78
2020/12/28 12:41:06;;;;;;;9.48;5.10;;;5.30;77.60;;;;;;5037613;28;20037;-78
2020/12/28 12:43:32;;;;;;;14.52;6.03;;;5.30;77.50;;;;;;5037411;28;20033;-79
2020/12/28 12:45:58;;;;;;;8.50;4.97;;;5.30;78.00;;;;;;5037570;28;20032;-79
2020/12/28 12:48:23;;;;;;;12.23;6.20;;;5.30;77.60;;;;;;5037425;28;20387;-78
2020/12/28 12:50:49;;;;;;;9.90;5.72;;;5.30;73.70;;;;;;5054526;28;20032;-78
2020/12/28 12:53:17;;;;;;;12.02;6.40;;;5.30;75.10;;;;;;5037362;28;20082;-78